Time;durP1;ratioP1;P1;durP2;ratioP2;P2;SDS_P1;SDS_P2;PMS_P1;PMS_P2;Temp;Humidity;BMP_temperature;BMP_pressure;BME280_temperature;BME280_humidity;BME280_pressure;Samples;Min_cycle;Max_cycle;Signal;HPM_P1;HPM_P2
2022/09/03 00:00:33;;;;;;;4.18;3.00;;;;;;;20.21;60.21;101165.97;5066718;28;20380;-63
2022/09/03 00:03:07;;;;;;;4.80;2.92;;;;;;;20.21;60.27;101169.50;5066989;28;20417;-63
2022/09/03 00:05:44;;;;;;;5.78;2.72;;;;;;;20.20;60.07;101169.69;5066702;28;20380;-63
2022/09/03 00:10:52;;;;;;;4.50;2.42;;;;;;;20.19;59.98;101168.88;5106679;27;20423;-63
2022/09/03 00:13:33;;;;;;;4.40;2.80;;;;;;;20.16;59.61;101172.03;5107763;28;20388;-63
2022/09/03 00:17:56;;;;;;;3.60;2.50;;;;;;;20.19;59.40;101182.34;5106703;27;20405;-63
2022/09/03 00:20:30;;;;;;;3.70;2.90;;;;;;;20.20;59.43;101175.09;5107681;28;20511;-62
2022/09/03 00:23:00;;;;;;;6.25;2.80;;;;;;;20.18;59.37;101183.38;5107299;28;20965;-63
2022/09/03 00:25:37;;;;;;;3.50;2.50;;;;;;;20.18;59.43;101171.81;5107579;28;20899;-64
2022/09/03 00:28:11;;;;;;;5.57;2.88;;;;;;;20.15;59.53;101178.47;5107274;28;20396;-63
2022/09/03 00:30:39;;;;;;;4.10;2.67;;;;;;;20.16;59.30;101173.91;5106249;28;20385;-62
2022/09/03 00:33:17;;;;;;;4.15;2.72;;;;;;;20.13;59.42;101180.56;5107280;28;20437;-63
2022/09/03 00:35:52;;;;;;;3.13;2.78;;;;;;;20.13;59.52;101180.56;5107376;28;20414;-63
2022/09/03 00:38:18;;;;;;;4.18;3.00;;;;;;;20.16;59.41;101192.75;5107373;28;20372;-63
2022/09/03 00:41:05;;;;;;;4.63;3.03;;;;;;;20.15;59.50;101181.16;5106989;28;20923;-65
2022/09/03 00:44:02;;;;;;;3.70;2.80;;;;;;;20.13;59.44;101182.41;5107171;28;20387;-63
2022/09/03 00:46:51;;;;;;;6.68;2.85;;;;;;;20.15;59.46;101189.22;5106943;28;20461;-63
2022/09/03 00:49:35;;;;;;;3.72;2.72;;;;;;;20.16;59.53;101190.03;5106885;28;20377;-63
2022/09/03 00:52:38;;;;;;;6.35;2.90;;;;;;;20.13;59.45;101187.78;5107121;28;20371;-63
2022/09/03 00:55:23;;;;;;;5.73;2.80;;;;;;;20.12;59.39;101189.66;5107103;28;20392;-63
2022/09/03 01:00:42;;;;;;;3.50;2.75;;;;;;;20.11;59.29;101179.94;5066280;28;20437;-63
2022/09/03 01:03:26;;;;;;;4.20;2.90;;;;;;;20.14;59.57;101184.06;5066874;28;20392;-63
2022/09/03 01:06:02;;;;;;;3.78;2.90;;;;;;;20.14;59.35;101190.25;5066896;28;20419;-62
2022/09/03 01:09:02;;;;;;;4.10;3.40;;;;;;;20.13;59.39;101196.72;5067102;28;20391;-63
2022/09/03 01:11:48;;;;;;;4.47;2.97;;;;;;;20.12;59.42;101194.22;5054893;28;20442;-63
2022/09/03 01:14:19;;;;;;;5.05;2.90;;;;;;;20.09;59.13;101183.91;5066714;28;20380;-64
2022/09/03 01:17:04;;;;;;;3.60;2.80;;;;;;;20.04;59.27;101184.56;5066844;28;20844;-63
2022/09/03 01:19:52;;;;;;;3.22;2.85;;;;;;;20.05;59.41;101195.09;5066493;28;20937;-63
2022/09/03 01:22:56;;;;;;;4.90;2.47;;;;;;;20.07;59.47;101189.50;5066737;28;20449;-63
2022/09/03 01:28:01;;;;;;;4.82;2.75;;;;;;;20.04;59.60;101193.47;5106639;27;20400;-64
2022/09/03 01:30:30;;;;;;;5.22;3.17;;;;;;;20.07;59.66;101196.75;5107334;28;20392;-63
2022/09/03 01:33:10;;;;;;;4.43;2.60;;;;;;;20.08;59.53;101193.84;5107200;28;20716;-63
2022/09/03 01:35:44;;;;;;;3.90;2.80;;;;;;;20.08;59.40;101199.22;5107385;28;20377;-64
2022/09/03 01:38:44;;;;;;;6.45;2.75;;;;;;;20.07;59.12;101204.84;5107358;28;20384;-63
2022/09/03 01:44:31;;;;;;;3.83;2.90;;;;;;;20.01;59.00;101198.47;5107068;28;20391;-64
2022/09/03 01:47:15;;;;;;;3.45;3.15;;;;;;;19.99;58.97;101203.25;5106998;28;20412;-66
2022/09/03 01:49:44;;;;;;;4.93;3.00;;;;;;;19.99;58.90;101190.63;5107293;28;20892;-63
2022/09/03 01:52:16;;;;;;;3.85;2.95;;;;;;;19.97;59.09;101186.47;5107290;28;20901;-64
2022/09/03 01:54:50;;;;;;;5.50;3.33;;;;;;;19.94;59.00;101189.63;5106960;28;20395;-63
2022/09/03 02:02:39;;;;;;;4.65;3.10;;;;;;;19.92;58.91;101200.63;5093664;27;2105435;-63
2022/09/03 02:06:56;;;;;;;5.00;3.08;;;;;;;19.97;58.77;101199.94;5095765;27;21013;-63
2022/09/03 02:09:22;;;;;;;4.83;3.10;;;;;;;19.95;58.62;101196.66;5094535;28;20480;-63
2022/09/03 02:11:58;;;;;;;5.47;3.20;;;;;;;19.92;58.58;101199.81;5103726;28;20386;-63
2022/09/03 02:14:26;;;;;;;3.47;2.90;;;;;;;19.92;58.58;101207.88;5089565;28;20547;-63
2022/09/03 02:16:53;;;;;;;3.80;3.22;;;;;;;19.92;58.63;101199.81;5090066;28;21008;-63
2022/09/03 02:19:18;;;;;;;3.88;3.20;;;;;;;19.93;58.65;101207.63;5084442;28;20445;-63
2022/09/03 02:21:50;;;;;;;5.60;3.30;;;;;;;19.91;58.54;101206.22;5093700;28;20390;-63
2022/09/03 02:24:17;;;;;;;6.30;3.15;;;;;;;19.91;58.72;101206.22;5086820;28;20374;-64
2022/09/03 02:26:42;;;;;;;4.90;3.50;;;;;;;19.92;58.59;101207.88;5087471;28;20418;-63
2022/09/03 02:29:09;;;;;;;5.80;3.20;;;;;;;19.89;58.63;101203.72;5085993;28;20393;-63
2022/09/03 02:31:35;;;;;;;4.18;3.40;;;;;;;19.92;58.72;101203.31;5086587;28;20768;-63
2022/09/03 02:34:00;;;;;;;5.13;3.42;;;;;;;19.89;58.69;101203.72;5086891;28;20880;-64
2022/09/03 02:36:40;;;;;;;4.20;3.03;;;;;;;19.92;58.72;101200.63;5086919;28;20387;-63
2022/09/03 02:39:06;;;;;;;3.50;3.03;;;;;;;19.89;58.83;101194.84;5086623;28;20408;-64
2022/09/03 02:41:32;;;;;;;4.22;3.15;;;;;;;19.84;58.97;101195.50;5086505;28;20424;-64
2022/09/03 02:44:22;;;;;;;5.30;2.85;;;;;;;19.85;58.80;101197.16;5086462;28;20374;-63
2022/09/03 02:46:55;;;;;;;4.87;3.03;;;;;;;19.88;58.68;101212.03;5086232;28;20796;-63
2022/09/03 02:49:21;;;;;;;3.70;2.80;;;;;;;19.85;58.67;101218.69;5086646;28;20393;-63
2022/09/03 02:53:54;;;;;;;4.78;2.83;;;;;;;19.91;58.83;101217.78;5066185;28;20408;-63
2022/09/03 02:56:23;;;;;;;3.65;2.80;;;;;;;19.90;58.53;101218.00;5066905;28;20442;-63
2022/09/03 02:58:48;;;;;;;3.70;2.60;;;;;;;19.83;58.65;101205.44;5059328;28;21018;-63
2022/09/03 03:03:15;;;;;;;3.87;2.80;;;;;;;19.86;58.58;101210.41;5095267;27;2061561;-63
2022/09/03 03:05:54;;;;;;;4.40;2.50;;;;;;;19.85;58.64;101219.50;5148892;27;20385;-63
2022/09/03 03:08:22;;;;;;;5.05;2.78;;;;;;;19.84;58.67;101214.31;5132992;27;20473;-63
2022/09/03 03:10:49;;;;;;;4.13;3.00;;;;;;;19.87;58.65;101221.97;5127853;28;20439;-63
2022/09/03 03:13:15;;;;;;;4.10;2.70;;;;;;;19.88;58.54;101212.03;5128017;28;20418;-62
2022/09/03 03:15:41;;;;;;;5.95;3.15;;;;;;;19.88;58.57;101210.19;5127957;28;20422;-62
2022/09/03 03:18:10;;;;;;;3.35;2.95;;;;;;;19.88;58.65;101201.25;5127677;28;20395;-62
2022/09/03 03:20:39;;;;;;;4.20;3.13;;;;;;;19.91;58.98;101200.84;5127257;28;20431;-63
2022/09/03 03:23:06;;;;;;;4.07;3.10;;;;;;;19.89;59.14;101197.53;5127029;28;20953;-64
2022/09/03 03:25:38;;;;;;;5.55;3.30;;;;;;;19.92;59.14;101208.69;5127290;28;20776;-63
2022/09/03 03:28:05;;;;;;;6.32;3.70;;;;;;;19.90;59.00;101205.41;5127188;28;20482;-63
2022/09/03 03:30:31;;;;;;;4.72;3.70;;;;;;;19.92;58.87;101208.69;5126955;28;20387;-63
2022/09/03 03:32:57;;;;;;;5.63;3.97;;;;;;;19.96;59.05;101215.25;5127660;28;20387;-62
2022/09/03 03:35:23;;;;;;;7.30;4.10;;;;;;;19.94;59.02;101216.53;5126934;28;20375;-62
2022/09/03 03:37:49;;;;;;;6.53;3.90;;;;;;;19.94;59.19;101211.97;5127397;28;20887;-62
2022/09/03 03:40:15;;;;;;;6.47;3.53;;;;;;;19.90;59.09;101212.63;5127553;28;20402;-62
2022/09/03 03:42:41;;;;;;;4.43;3.35;;;;;;;19.93;59.11;101212.19;5127410;28;20410;-63
2022/09/03 03:45:08;;;;;;;4.30;3.10;;;;;;;19.92;59.16;101219.44;5127131;28;20387;-62
2022/09/03 03:47:35;;;;;;;3.40;3.10;;;;;;;19.86;59.21;101207.69;5126896;28;20391;-63
2022/09/03 03:50:00;;;;;;;5.80;2.83;;;;;;;19.90;59.36;101213.47;5126559;28;20402;-63
2022/09/03 03:52:27;;;;;;;3.88;3.20;;;;;;;19.92;59.42;101216.75;5127043;28;20784;-62
2022/09/03 03:54:53;;;;;;;4.47;2.95;;;;;;;19.93;59.37;101213.00;5126644;28;20383;-62
2022/09/03 03:57:19;;;;;;;5.38;3.05;;;;;;;19.92;59.53;101207.88;5126508;28;20433;-62
2022/09/03 03:59:45;;;;;;;5.47;2.90;;;;;;;19.97;59.44;101208.00;5126850;28;20378;-63
2022/09/03 04:02:11;;;;;;;4.82;2.97;;;;;;;19.94;59.68;101209.28;5101615;28;20927;-62
2022/09/03 04:04:36;;;;;;;5.00;3.10;;;;;;;19.92;59.70;101208.69;5127113;28;20463;-63
2022/09/03 04:07:03;;;;;;;4.67;3.13;;;;;;;19.92;59.83;101213.25;5125964;28;20492;-62
2022/09/03 04:09:28;;;;;;;4.90;3.10;;;;;;;19.92;59.80;101213.25;5126812;28;20478;-62
2022/09/03 04:11:55;;;;;;;4.47;2.80;;;;;;;19.97;59.85;101213.38;5126303;28;20520;-63
2022/09/03 04:14:21;;;;;;;4.50;3.03;;;;;;;19.98;59.85;101212.34;5113931;28;20904;-63
2022/09/03 04:16:46;;;;;;;4.23;2.70;;;;;;;20.00;59.98;101219.16;5112784;28;20384;-63
2022/09/03 04:19:12;;;;;;;6.50;2.88;;;;;;;19.96;59.87;101223.34;5111550;28;20383;-62
2022/09/03 04:21:38;;;;;;;5.73;2.97;;;;;;;19.96;59.84;101222.53;5113019;28;20414;-62
2022/09/03 04:24:04;;;;;;;7.13;3.60;;;;;;;19.99;59.51;101233.66;5112532;28;20419;-63
2022/09/03 04:26:30;;;;;;;5.85;3.65;;;;;;;19.99;59.81;101230.16;5112372;28;20927;-63
2022/09/03 04:28:58;;;;;;;4.13;3.22;;;;;;;20.01;59.86;101228.88;5112446;28;20403;-63
2022/09/03 04:31:23;;;;;;;5.07;3.28;;;;;;;20.02;59.74;101235.94;5112501;28;20900;-62
2022/09/03 04:33:50;;;;;;;5.20;3.42;;;;;;;20.08;59.85;101234.22;5111953;28;20472;-63
2022/09/03 04:36:21;;;;;;;6.85;4.22;;;;;;;20.07;59.65;101239.81;5112675;28;20382;-63
2022/09/03 04:38:49;;;;;;;7.87;4.57;;;;;;;20.09;59.72;101243.13;5112288;28;20388;-63
2022/09/03 04:41:18;;;;;;;7.57;4.50;;;;;;;20.12;59.94;101254.25;5112074;28;20498;-63
2022/09/03 04:43:45;;;;;;;5.57;3.83;;;;;;;20.07;59.89;101250.59;5112436;28;20474;-64
2022/09/03 04:46:12;;;;;;;6.07;3.47;;;;;;;20.05;59.87;101251.63;5112193;28;20384;-63
2022/09/03 04:48:39;;;;;;;5.85;3.47;;;;;;;20.09;59.93;101254.69;5112322;28;20391;-63
2022/09/03 04:51:06;;;;;;;4.83;3.63;;;;;;;20.13;59.77;101261.31;5112079;28;20482;-63
2022/09/03 04:53:37;;;;;;;6.07;3.20;;;;;;;20.14;59.69;101252.16;5111895;28;20384;-63
2022/09/03 04:56:10;;;;;;;6.40;3.30;;;;;;;20.14;59.79;101257.56;5112125;28;20402;-63
2022/09/03 04:58:35;;;;;;;5.55;3.20;;;;;;;20.13;59.74;101261.31;5111797;28;20384;-63
2022/09/03 05:01:07;;;;;;;6.82;3.67;;;;;;;20.17;59.87;101254.44;5111215;28;20734;-63
2022/09/03 05:03:33;;;;;;;5.67;3.50;;;;;;;20.20;59.77;101264.75;5095018;28;20416;-64
2022/09/03 05:05:59;;;;;;;7.87;3.80;;;;;;;20.22;59.61;101267.22;5111856;28;20439;-63
2022/09/03 05:08:25;;;;;;;6.43;3.45;;;;;;;20.23;59.70;101263.50;5111375;28;20874;-63
2022/09/03 05:10:58;;;;;;;5.47;3.88;;;;;;;20.18;59.91;101266.00;5110568;28;20877;-63
2022/09/03 05:13:24;;;;;;;5.35;3.25;;;;;;;20.20;60.00;101275.53;5111584;28;20470;-62
2022/09/03 05:15:49;;;;;;;5.18;3.92;;;;;;;20.21;59.73;101266.41;5112145;28;20466;-64
2022/09/03 05:18:15;;;;;;;5.60;3.40;;;;;;;20.18;59.45;101257.94;5111521;28;20376;-63
2022/09/03 05:20:40;;;;;;;5.80;3.67;;;;;;;20.16;59.91;101260.03;5111109;28;20383;-63
2022/09/03 05:23:06;;;;;;;6.63;4.13;;;;;;;20.17;59.91;101254.44;5110994;28;20507;-62
2022/09/03 05:25:32;;;;;;;6.60;4.43;;;;;;;20.20;59.91;101262.06;5110644;28;20388;-62
2022/09/03 05:27:58;;;;;;;6.70;4.50;;;;;;;20.22;60.13;101269.91;5111339;28;20384;-62
2022/09/03 05:30:25;;;;;;;6.47;4.30;;;;;;;20.21;59.97;101263.69;5110979;28;20384;-65
2022/09/03 05:32:50;;;;;;;7.28;4.28;;;;;;;20.26;60.10;101276.50;5093010;28;20387;-66
2022/09/03 05:35:16;;;;;;;6.57;4.43;;;;;;;20.25;60.27;101272.97;5111428;28;20401;-62
2022/09/03 05:37:42;;;;;;;5.00;4.03;;;;;;;20.30;60.18;101276.91;5111291;28;20418;-62
2022/09/03 05:40:10;;;;;;;6.17;3.77;;;;;;;20.34;60.13;101284.28;5111603;28;20376;-62
2022/09/03 05:42:37;;;;;;;5.47;3.00;;;;;;;20.29;60.14;101277.94;5110837;28;20452;-62
2022/09/03 05:45:09;;;;;;;4.10;3.05;;;;;;;20.29;60.69;101288.69;5111389;28;20367;-62
2022/09/03 05:47:38;;;;;;;5.03;3.80;;;;;;;20.27;60.97;101283.53;5111396;28;20371;-62
2022/09/03 05:50:09;;;;;;;6.38;3.67;;;;;;;20.22;61.37;101273.44;5111419;28;20395;-61
2022/09/03 05:52:35;;;;;;;5.05;3.55;;;;;;;20.25;61.15;101282.94;5111009;28;20375;-61
2022/09/03 05:55:01;;;;;;;7.72;5.18;;;;;;;20.30;61.21;101290.34;5110592;28;20734;-61
2022/09/03 05:57:28;;;;;;;4.50;3.40;;;;;;;20.24;61.19;101284.81;5110810;28;20873;-62
2022/09/03 05:59:53;;;;;;;6.00;3.17;;;;;;;20.31;61.37;101289.31;5111215;28;20367;-62
2022/09/03 06:02:19;;;;;;;3.70;3.10;;;;;;;20.35;61.34;101285.16;5111001;28;20488;-62
2022/09/03 06:04:45;;;;;;;8.07;3.85;;;;;;;20.47;61.25;101290.59;5111077;28;20376;-62
2022/09/03 06:07:11;;;;;;;5.20;3.77;;;;;;;20.47;61.15;101296.81;5110452;28;20441;-61
2022/09/03 06:09:36;;;;;;;6.60;5.70;;;;;;;20.42;61.44;101304.75;5110927;28;20414;-61
2022/09/03 06:12:02;;;;;;;6.55;4.47;;;;;;;20.40;61.64;101304.13;5110672;28;20474;-61
2022/09/03 06:14:27;;;;;;;6.40;3.80;;;;;;;20.43;61.71;101309.06;5110319;28;20523;-63
2022/09/03 06:16:54;;;;;;;6.10;3.90;;;;;;;20.47;61.47;101317.53;5110560;28;20753;-64
2022/09/03 06:19:19;;;;;;;6.80;3.88;;;;;;;20.49;61.53;101318.13;5111080;28;20868;-62
2022/09/03 06:21:45;;;;;;;6.38;3.80;;;;;;;20.50;61.48;101314.41;5110407;28;20405;-63
2022/09/03 06:24:14;;;;;;;6.77;4.60;;;;;;;20.48;61.74;101311.13;5110400;28;20384;-63
2022/09/03 06:26:41;;;;;;;7.63;4.07;;;;;;;20.53;61.88;101324.75;5110248;28;20367;-63
2022/09/03 06:29:07;;;;;;;6.22;4.18;;;;;;;20.57;61.95;101336.72;5118303;27;20475;-63
2022/09/03 06:31:34;;;;;;;8.75;4.40;;;;;;;20.56;61.97;101325.13;5119072;27;20383;-63
2022/09/03 06:34:00;;;;;;;6.28;4.20;;;;;;;20.59;62.02;101324.66;5120041;27;20842;-62
2022/09/03 06:36:25;;;;;;;6.60;4.23;;;;;;;20.61;62.11;101319.91;5118130;27;20968;-62
2022/09/03 06:38:53;;;;;;;8.70;3.72;;;;;;;20.62;61.88;101323.44;5118667;27;20372;-62
2022/09/03 06:41:24;;;;;;;8.73;5.30;;;;;;;20.69;61.84;101321.50;5121471;27;20414;-62
2022/09/03 06:43:57;;;;;;;5.97;4.43;;;;;;;20.70;62.02;101323.16;5119230;27;20390;-62
2022/09/03 06:46:24;;;;;;;9.03;4.47;;;;;;;20.71;61.96;101321.28;5117064;27;20382;-62
2022/09/03 06:51:18;;;;;;;7.30;4.97;;;;;;;20.75;62.11;101326.00;5046371;28;20406;-63
2022/09/03 06:53:46;;;;;;;6.50;3.93;;;;;;;20.72;61.91;101333.72;5045344;28;20409;-63
2022/09/03 06:56:14;;;;;;;6.05;4.05;;;;;;;20.78;61.86;101339.03;5046491;28;20494;-62
2022/09/03 06:58:43;;;;;;;6.70;3.60;;;;;;;20.85;61.67;101340.81;5046293;28;20440;-62
2022/09/03 07:01:14;;;;;;;5.78;3.75;;;;;;;20.97;61.66;101349.81;5058365;28;20432;-62
2022/09/03 07:03:42;;;;;;;4.03;3.63;;;;;;;21.01;61.10;101337.53;5046262;28;20393;-63
2022/09/03 07:06:11;;;;;;;4.43;3.58;;;;;;;21.15;60.73;101338.22;5046923;28;20386;-63
2022/09/03 07:08:37;;;;;;;6.00;3.67;;;;;;;21.23;60.64;101346.03;5046736;28;20425;-63
2022/09/03 07:11:08;;;;;;;6.90;3.80;;;;;;;21.29;60.22;101339.72;5046092;28;20456;-62
2022/09/03 07:13:54;;;;;;;6.75;3.90;;;;;;;21.26;60.33;101345.56;5045528;28;20393;-63
2022/09/03 07:16:28;;;;;;;5.90;3.50;;;;;;;21.36;60.22;101345.84;5046616;28;20472;-63
2022/09/03 07:18:54;;;;;;;12.85;3.50;;;;;;;21.33;60.11;101350.88;5046695;28;20395;-63
2022/09/03 07:21:26;;;;;;;6.78;3.60;;;;;;;21.34;60.16;101355.22;5045522;28;20393;-63
2022/09/03 07:23:53;;;;;;;6.13;3.72;;;;;;;21.43;59.98;101353.03;5046554;28;20400;-63
2022/09/03 07:26:24;;;;;;;3.42;2.90;;;;;;;21.42;59.72;101362.19;5046752;28;20381;-63
2022/09/03 07:28:53;;;;;;;3.15;2.80;;;;;;;21.38;59.79;101348.31;5046254;28;20440;-63
2022/09/03 07:31:27;;;;;;;3.58;3.10;;;;;;;21.47;59.59;101347.00;5046137;28;20386;-63
2022/09/03 07:33:57;;;;;;;5.00;3.20;;;;;;;21.62;59.46;101343.06;5046195;28;20396;-63
2022/09/03 07:36:24;;;;;;;5.30;3.88;;;;;;;21.76;58.98;101339.13;5046284;28;20385;-65
2022/09/03 07:38:50;;;;;;;6.10;4.00;;;;;;;21.89;58.29;101351.63;5045985;28;20378;-62
2022/09/03 07:41:16;;;;;;;3.90;3.00;;;;;;;22.02;57.75;101347.91;5045120;28;20386;-62
2022/09/03 07:43:48;;;;;;;3.35;2.67;;;;;;;22.11;57.77;101346.50;5045583;28;20455;-63
2022/09/03 07:46:21;;;;;;;5.30;2.80;;;;;;;22.26;57.34;101349.63;5044499;28;20484;-63
2022/09/03 07:48:51;;;;;;;3.33;2.80;;;;;;;22.37;57.12;101348.00;5044500;28;20413;-62
2022/09/03 07:51:18;;;;;;;4.00;2.97;;;;;;;22.58;56.87;101352.03;5045139;28;20413;-62
2022/09/03 07:53:45;;;;;;;3.50;2.35;;;;;;;22.75;56.08;101349.44;5048131;28;20483;-66
2022/09/03 07:56:11;;;;;;;3.75;2.38;;;;;;;23.03;55.13;101362.22;5045540;28;20417;-57
2022/09/03 07:58:38;;;;;;;2.78;2.40;;;;;;;23.09;54.75;101364.00;5045321;28;20400;-57
2022/09/03 08:01:09;;;;;;;4.30;2.17;;;;;;;22.95;54.62;101365.28;5040846;28;20789;-56
2022/09/03 08:03:35;;;;;;;3.05;1.98;;;;;;;22.90;54.21;101354.34;5031734;28;20433;-57
2022/09/03 08:06:02;;;;;;;3.45;1.90;;;;;;;23.00;54.08;101349.16;5032276;28;20374;-57
2022/09/03 08:08:28;;;;;;;2.88;1.90;;;;;;;23.09;54.31;101353.19;5032278;28;20884;-56
2022/09/03 08:10:54;;;;;;;3.43;2.13;;;;;;;23.37;53.44;101356.16;5032314;28;20410;-56
2022/09/03 08:13:19;;;;;;;3.97;2.22;;;;;;;23.63;52.51;101357.50;5031230;28;20444;-56
2022/09/03 08:15:55;;;;;;;3.33;2.17;;;;;;;23.70;52.38;101355.47;5032126;28;20397;-57
2022/09/03 08:18:21;;;;;;;3.22;2.03;;;;;;;23.84;52.25;101353.31;5032287;28;20393;-56
2022/09/03 08:20:47;;;;;;;3.05;2.35;;;;;;;24.04;51.55;101348.25;5032240;28;20393;-56
2022/09/03 08:23:13;;;;;;;4.80;1.97;;;;;;;24.21;51.12;101355.56;5032330;28;20386;-57
2022/09/03 08:25:39;;;;;;;5.13;2.17;;;;;;;24.49;50.68;101353.84;5031861;28;20867;-56
2022/09/03 08:28:04;;;;;;;4.53;1.93;;;;;;;24.87;49.49;101349.56;5031682;28;20386;-56
2022/09/03 08:30:29;;;;;;;3.08;1.83;;;;;;;24.96;48.18;101350.78;5031767;28;20415;-57
2022/09/03 08:32:55;;;;;;;2.50;1.63;;;;;;;24.93;48.12;101341.22;5031693;28;20424;-56
2022/09/03 08:35:21;;;;;;;2.70;1.80;;;;;;;25.14;48.00;101344.22;5031445;28;20398;-57
2022/09/03 08:37:50;;;;;;;2.78;1.88;;;;;;;25.58;47.52;101346.09;5031701;28;20418;-57
2022/09/03 08:40:16;;;;;;;2.58;1.80;;;;;;;25.71;46.52;101341.09;5031912;28;20374;-57
2022/09/03 08:42:47;;;;;;;4.63;2.30;;;;;;;25.72;46.58;101329.16;5031398;28;20390;-57
2022/09/03 08:45:18;;;;;;;4.38;2.28;;;;;;;25.56;47.00;101341.75;5031137;28;20934;-59
2022/09/03 08:48:00;;;;;;;3.92;2.00;;;;;;;25.41;47.40;101338.03;5031376;28;20517;-57
2022/09/03 08:50:34;;;;;;;2.30;1.90;;;;;;;25.25;47.45;101337.88;5045302;28;20420;-56
2022/09/03 08:53:05;;;;;;;2.90;1.90;;;;;;;25.07;47.85;101344.41;5050724;28;20455;-57
2022/09/03 08:55:43;;;;;;;2.80;1.95;;;;;;;24.91;47.87;101348.00;5043742;28;20917;-57
2022/09/03 08:58:18;;;;;;;3.38;2.28;;;;;;;24.93;47.42;101326.84;5048201;28;20381;-56
2022/09/03 09:01:05;;;;;;;4.18;1.83;;;;;;;25.17;47.50;101333.69;5044042;28;20420;-54
2022/09/03 09:04:18;;;;;;;2.17;1.97;;;;;;;25.36;47.00;101328.78;5049587;28;20389;-57
2022/09/03 09:07:02;;;;;;;3.07;1.63;;;;;;;25.26;47.30;101330.53;4949456;29;20408;-56
2022/09/03 09:09:43;;;;;;;5.78;2.10;;;;;;;25.45;47.66;101344.63;4949932;29;20421;-57
2022/09/03 09:12:39;;;;;;;2.80;1.65;;;;;;;25.37;47.28;101338.56;4990042;28;20473;-57
2022/09/03 09:15:31;;;;;;;2.72;2.10;;;;;;;25.51;46.57;101333.53;5035891;28;20403;-56
2022/09/03 09:18:38;;;;;;;2.40;1.80;;;;;;;25.58;46.35;101327.09;5042650;28;20463;-57
2022/09/03 09:21:44;;;;;;;2.88;1.73;;;;;;;25.57;46.48;101334.44;5036001;28;20452;-58
2022/09/03 09:24:20;;;;;;;2.70;2.08;;;;;;;25.45;46.76;101342.72;5004784;28;20464;-57
2022/09/03 09:26:47;;;;;;;2.65;1.50;;;;;;;25.45;46.10;101333.75;5037652;28;20381;-58
2022/09/03 09:29:14;;;;;;;4.28;1.83;;;;;;;25.33;46.32;101337.41;5033374;28;20835;-57
2022/09/03 09:31:43;;;;;;;3.38;1.90;;;;;;;25.48;46.45;101338.66;5035814;28;20910;-57
2022/09/03 09:34:10;;;;;;;2.38;1.98;;;;;;;25.53;45.54;101336.84;5030930;28;20919;-57
2022/09/03 09:37:03;;;;;;;2.75;2.00;;;;;;;25.72;45.65;101341.91;5036499;28;20397;-57
2022/09/03 09:39:29;;;;;;;2.45;1.90;;;;;;;25.86;45.55;101337.72;5035705;28;20390;-57
2022/09/03 09:42:08;;;;;;;2.17;1.45;;;;;;;25.87;44.89;101331.19;5036690;28;20919;-57
2022/09/03 09:44:34;;;;;;;4.70;1.50;;;;;;;25.79;44.49;101333.56;5033145;28;20432;-56
2022/09/03 09:47:07;;;;;;;2.20;1.90;;;;;;;25.70;44.89;101342.16;5033540;28;20378;-57
2022/09/03 09:49:37;;;;;;;2.90;2.00;;;;;;;25.59;45.19;101347.72;5030899;28;20429;-58
2022/09/03 09:52:15;;;;;;;1.98;1.70;;;;;;;25.69;45.06;101351.38;5037703;28;20888;-57
2022/09/03 09:54:45;;;;;;;2.15;1.73;;;;;;;25.87;45.28;101355.63;5040001;28;20386;-58
2022/09/03 09:57:21;;;;;;;3.42;2.22;;;;;;;25.80;45.26;101346.88;5039519;28;20419;-60
2022/09/03 09:59:48;;;;;;;4.13;2.80;;;;;;;25.81;45.36;101345.00;5029874;28;20457;-57
2022/09/03 10:02:14;;;;;;;2.83;2.40;;;;;;;25.75;45.12;101346.84;5038187;28;20377;-59
2022/09/03 10:04:42;;;;;;;3.15;2.20;;;;;;;25.74;45.22;101347.91;5032987;28;20532;-57
2022/09/03 10:07:21;;;;;;;4.05;2.50;;;;;;;25.79;45.35;101344.44;5033888;28;20380;-61
2022/09/03 10:10:01;;;;;;;5.57;2.47;;;;;;;25.70;45.11;101344.88;5028282;28;20424;-61
2022/09/03 10:12:43;;;;;;;3.00;1.65;;;;;;;25.55;45.07;101336.56;5030378;28;20816;-57
2022/09/03 10:15:18;;;;;;;6.72;6.03;;;;;;;25.69;45.28;101348.66;5042925;28;20990;-62
2022/09/03 10:17:59;;;;;;;3.75;2.30;;;;;;;25.78;45.25;101359.06;5042935;28;20384;-59
2022/09/03 10:20:52;;;;;;;2.78;2.00;;;;;;;25.94;45.01;101348.13;4989329;28;20919;-58
2022/09/03 10:23:27;;;;;;;3.17;2.88;;;;;;;25.96;44.84;101344.34;5000578;28;20386;-60
2022/09/03 10:26:06;;;;;;;4.95;3.00;;;;;;;25.85;45.01;101337.97;4999937;28;20451;-59
2022/09/03 10:28:40;;;;;;;2.90;2.05;;;;;;;25.75;45.05;101342.22;5000555;28;20487;-59
2022/09/03 10:31:30;;;;;;;5.13;2.67;;;;;;;25.73;45.10;101338.09;5004808;28;20790;-58
2022/09/03 10:34:14;;;;;;;5.40;3.70;;;;;;;25.60;45.27;101343.94;5003205;28;20399;-58
2022/09/03 10:36:51;;;;;;;5.20;2.70;;;;;;;25.75;45.00;101339.50;5002931;28;20435;-59
2022/09/03 10:39:41;;;;;;;4.03;2.97;;;;;;;25.99;45.06;101339.22;5007075;28;20518;-57
2022/09/03 10:42:28;;;;;;;5.70;3.97;;;;;;;26.08;44.51;101334.13;5004280;28;20424;-58
2022/09/03 10:45:27;;;;;;;4.00;3.60;;;;;;;25.88;44.57;101340.97;5006598;28;20899;-57
2022/09/03 10:48:14;;;;;;;4.68;2.60;;;;;;;25.91;44.72;101326.06;5005770;28;21073;-59
2022/09/03 10:50:52;;;;;;;2.95;2.47;;;;;;;26.00;44.58;101323.72;5006686;28;20448;-58
2022/09/03 10:53:17;;;;;;;3.30;2.50;;;;;;;26.16;44.24;101311.91;5007645;28;20397;-57
2022/09/03 10:55:55;;;;;;;2.70;2.20;;;;;;;26.31;43.70;101309.31;5005588;28;20887;-58
2022/09/03 11:00:53;;;;;;;2.88;2.33;;;;;;;26.38;43.41;101310.97;5045149;28;20430;-58
2022/09/03 11:03:18;;;;;;;2.83;2.53;;;;;;;26.18;43.22;101315.19;5043601;28;20401;-58
2022/09/03 11:05:57;;;;;;;3.70;2.90;;;;;;;26.08;43.73;101315.09;5044304;28;20894;-57
2022/09/03 11:08:23;;;;;;;3.15;2.67;;;;;;;25.96;43.65;101317.97;5055123;28;20890;-57
2022/09/03 11:11:02;;;;;;;3.13;2.57;;;;;;;26.04;44.17;101301.22;5066489;28;20394;-59
2022/09/03 11:13:35;;;;;;;3.95;2.60;;;;;;;26.31;44.05;101313.94;5066335;28;20384;-57
2022/09/03 11:16:10;;;;;;;3.20;2.40;;;;;;;26.56;43.45;101310.56;5066531;28;20438;-58
2022/09/03 11:18:37;;;;;;;4.68;3.55;;;;;;;26.78;42.78;101304.19;5061095;28;20420;-57
2022/09/03 11:21:09;;;;;;;5.72;2.75;;;;;;;26.93;41.98;101303.44;5046224;28;20400;-58
2022/09/03 11:23:41;;;;;;;2.83;2.10;;;;;;;26.91;41.65;101303.69;5046336;28;20397;-57
2022/09/03 11:26:13;;;;;;;3.17;2.45;;;;;;;26.79;42.05;101301.16;5046210;28;20394;-58
2022/09/03 11:28:45;;;;;;;3.10;2.25;;;;;;;26.72;41.84;101305.22;5046449;28;20472;-58
2022/09/03 11:31:30;;;;;;;3.20;2.30;;;;;;;26.44;41.71;101312.66;5045972;28;20428;-57
2022/09/03 11:34:13;;;;;;;3.05;2.10;;;;;;;26.23;43.11;101311.69;5046027;28;20389;-57
2022/09/03 11:36:39;;;;;;;2.90;2.58;;;;;;;26.16;43.83;101311.09;5045728;28;20397;-58
2022/09/03 11:39:31;;;;;;;4.57;2.35;;;;;;;26.00;44.49;101308.25;5045652;28;20409;-58
2022/09/03 11:42:28;;;;;;;2.90;2.20;;;;;;;25.66;44.57;101311.19;5045910;28;20396;-57
2022/09/03 11:44:59;;;;;;;3.42;2.33;;;;;;;25.67;44.80;101301.13;5043040;28;20412;-58
2022/09/03 11:47:40;;;;;;;3.75;2.40;;;;;;;25.85;44.64;101308.91;5044549;28;20401;-57
2022/09/03 11:50:19;;;;;;;2.85;2.22;;;;;;;25.77;44.43;101312.09;5045902;28;20397;-58
2022/09/03 11:52:45;;;;;;;2.60;2.20;;;;;;;25.87;44.40;101303.22;5044755;28;20386;-57
2022/09/03 11:55:11;;;;;;;2.60;2.40;;;;;;;25.99;44.05;101309.31;5045026;28;20476;-57
2022/09/03 11:57:44;;;;;;;2.73;2.07;;;;;;;25.99;43.62;101312.03;5045229;28;20508;-57
2022/09/03 12:01:14;;;;;;;2.40;2.13;;;;;;;25.93;44.22;101313.91;5105465;27;20821;-58
2022/09/03 12:03:43;;;;;;;2.35;2.05;;;;;;;25.84;44.17;101310.00;5106394;28;20404;-58
2022/09/03 12:06:30;;;;;;;2.97;1.80;;;;;;;25.89;44.18;101301.88;5106817;28;20866;-58
2022/09/03 12:09:07;;;;;;;3.38;2.10;;;;;;;25.78;44.06;101300.13;5107080;28;20467;-57
2022/09/03 12:11:38;;;;;;;3.08;2.00;;;;;;;25.74;44.09;101293.59;5107048;28;20380;-57
2022/09/03 12:14:36;;;;;;;3.33;2.10;;;;;;;25.86;43.85;101282.56;5107092;28;20379;-57
2022/09/03 12:17:13;;;;;;;3.20;1.90;;;;;;;25.82;44.43;101293.13;5106972;28;20418;-58